sensor_id;sensor_type;location;lat;lon;timestamp;temperature;humidity
2967;DHT22;1493;51.496;7.210;2022-08-01T00:02:17;20.40;99.90
2967;DHT22;1493;51.496;7.210;2022-08-01T00:04:44;20.30;99.90
2967;DHT22;1493;51.496;7.210;2022-08-01T00:07:11;20.30;99.90
2967;DHT22;1493;51.496;7.210;2022-08-01T00:09:38;20.30;99.90
2967;DHT22;1493;51.496;7.210;2022-08-01T00:12:07;20.20;99.90
2967;DHT22;1493;51.496;7.210;2022-08-01T00:14:34;20.20;99.90
2967;DHT22;1493;51.496;7.210;2022-08-01T00:17:01;20.20;99.90
2967;DHT22;1493;51.496;7.210;2022-08-01T00:19:27;20.20;99.90
2967;DHT22;1493;51.496;7.210;2022-08-01T00:21:54;20.30;99.90
2967;DHT22;1493;51.496;7.210;2022-08-01T00:24:22;20.10;99.90
2967;DHT22;1493;51.496;7.210;2022-08-01T00:26:48;20.20;99.90
2967;DHT22;1493;51.496;7.210;2022-08-01T00:29:17;20.20;99.90
2967;DHT22;1493;51.496;7.210;2022-08-01T00:31:44;20.10;99.90
2967;DHT22;1493;51.496;7.210;2022-08-01T00:34:11;20.20;99.90
2967;DHT22;1493;51.496;7.210;2022-08-01T00:36:38;20.20;99.90
2967;DHT22;1493;51.496;7.210;2022-08-01T00:39:05;20.20;99.90
2967;DHT22;1493;51.496;7.210;2022-08-01T00:41:32;20.20;99.90
2967;DHT22;1493;51.496;7.210;2022-08-01T00:44:03;20.20;99.90
2967;DHT22;1493;51.496;7.210;2022-08-01T00:46:31;20.30;99.90
2967;DHT22;1493;51.496;7.210;2022-08-01T00:48:58;20.20;99.90
2967;DHT22;1493;51.496;7.210;2022-08-01T00:51:26;20.20;99.90
2967;DHT22;1493;51.496;7.210;2022-08-01T00:53:53;20.20;99.90
2967;DHT22;1493;51.496;7.210;2022-08-01T00:56:21;20.10;99.90
2967;DHT22;1493;51.496;7.210;2022-08-01T00:58:50;20.10;99.90
2967;DHT22;1493;51.496;7.210;2022-08-01T01:01:17;20.10;99.90
2967;DHT22;1493;51.496;7.210;2022-08-01T01:03:47;20.00;99.90
2967;DHT22;1493;51.496;7.210;2022-08-01T01:06:31;20.10;99.90
2967;DHT22;1493;51.496;7.210;2022-08-01T01:09:15;20.10;99.90
2967;DHT22;1493;51.496;7.210;2022-08-01T01:11:48;20.10;99.90
2967;DHT22;1493;51.496;7.210;2022-08-01T01:14:23;20.10;99.90
2967;DHT22;1493;51.496;7.210;2022-08-01T01:16:53;20.20;99.90
2967;DHT22;1493;51.496;7.210;2022-08-01T01:19:24;20.20;99.90
2967;DHT22;1493;51.496;7.210;2022-08-01T01:22:08;20.20;99.90
2967;DHT22;1493;51.496;7.210;2022-08-01T01:24:48;20.20;99.90
2967;DHT22;1493;51.496;7.210;2022-08-01T01:27:28;20.10;99.90
2967;DHT22;1493;51.496;7.210;2022-08-01T01:29:59;20.00;99.90
2967;DHT22;1493;51.496;7.210;2022-08-01T01:32:31;19.90;99.90
2967;DHT22;1493;51.496;7.210;2022-08-01T01:35:02;20.00;99.90
2967;DHT22;1493;51.496;7.210;2022-08-01T01:37:31;20.10;99.90
2967;DHT22;1493;51.496;7.210;2022-08-01T01:40:00;20.10;99.90
2967;DHT22;1493;51.496;7.210;2022-08-01T01:42:28;20.10;99.90
2967;DHT22;1493;51.496;7.210;2022-08-01T01:44:58;20.10;99.90
2967;DHT22;1493;51.496;7.210;2022-08-01T01:47:27;20.00;99.90
2967;DHT22;1493;51.496;7.210;2022-08-01T01:49:55;20.10;99.90
2967;DHT22;1493;51.496;7.210;2022-08-01T01:52:24;20.20;99.90
2967;DHT22;1493;51.496;7.210;2022-08-01T01:54:54;20.10;99.90
2967;DHT22;1493;51.496;7.210;2022-08-01T01:57:22;20.00;99.90
2967;DHT22;1493;51.496;7.210;2022-08-01T01:59:51;20.10;99.90
2967;DHT22;1493;51.496;7.210;2022-08-01T02:02:22;20.10;99.90
2967;DHT22;1493;51.496;7.210;2022-08-01T02:04:50;20.10;99.90
2967;DHT22;1493;51.496;7.210;2022-08-01T02:07:21;20.10;99.90
2967;DHT22;1493;51.496;7.210;2022-08-01T02:09:49;20.10;99.90
2967;DHT22;1493;51.496;7.210;2022-08-01T02:12:17;20.00;99.90
2967;DHT22;1493;51.496;7.210;2022-08-01T02:14:46;20.00;99.90
2967;DHT22;1493;51.496;7.210;2022-08-01T02:17:16;20.00;99.90
2967;DHT22;1493;51.496;7.210;2022-08-01T02:19:45;19.90;99.90
2967;DHT22;1493;51.496;7.210;2022-08-01T02:22:18;19.90;99.90
2967;DHT22;1493;51.496;7.210;2022-08-01T02:24:49;19.90;99.90
2967;DHT22;1493;51.496;7.210;2022-08-01T02:27:22;19.90;99.90
2967;DHT22;1493;51.496;7.210;2022-08-01T02:29:56;19.90;99.90
2967;DHT22;1493;51.496;7.210;2022-08-01T02:32:30;20.00;99.90
2967;DHT22;1493;51.496;7.210;2022-08-01T02:35:00;20.00;99.90
2967;DHT22;1493;51.496;7.210;2022-08-01T02:37:31;20.00;99.90
2967;DHT22;1493;51.496;7.210;2022-08-01T02:40:00;20.00;99.90
2967;DHT22;1493;51.496;7.210;2022-08-01T02:42:28;20.00;99.90
2967;DHT22;1493;51.496;7.210;2022-08-01T02:44:57;20.00;99.90
2967;DHT22;1493;51.496;7.210;2022-08-01T02:47:26;20.00;99.90
2967;DHT22;1493;51.496;7.210;2022-08-01T02:49:54;20.00;99.90
2967;DHT22;1493;51.496;7.210;2022-08-01T02:52:24;20.00;99.90
2967;DHT22;1493;51.496;7.210;2022-08-01T02:54:54;19.90;99.90
2967;DHT22;1493;51.496;7.210;2022-08-01T02:57:22;19.90;99.90
2967;DHT22;1493;51.496;7.210;2022-08-01T02:59:50;20.00;99.90
2967;DHT22;1493;51.496;7.210;2022-08-01T03:02:19;19.90;99.90
2967;DHT22;1493;51.496;7.210;2022-08-01T03:04:48;19.90;99.90
2967;DHT22;1493;51.496;7.210;2022-08-01T03:07:17;19.80;99.90
2967;DHT22;1493;51.496;7.210;2022-08-01T03:09:47;19.90;99.90
2967;DHT22;1493;51.496;7.210;2022-08-01T03:12:17;19.90;99.90
2967;DHT22;1493;51.496;7.210;2022-08-01T03:14:47;19.90;99.90
2967;DHT22;1493;51.496;7.210;2022-08-01T03:17:15;19.90;99.90
2967;DHT22;1493;51.496;7.210;2022-08-01T03:19:45;19.90;99.90
2967;DHT22;1493;51.496;7.210;2022-08-01T03:22:13;19.90;99.90
2967;DHT22;1493;51.496;7.210;2022-08-01T03:24:42;20.00;99.90
2967;DHT22;1493;51.496;7.210;2022-08-01T03:27:12;20.00;99.90
2967;DHT22;1493;51.496;7.210;2022-08-01T03:29:41;20.00;99.90
2967;DHT22;1493;51.496;7.210;2022-08-01T03:32:10;20.00;99.90
2967;DHT22;1493;51.496;7.210;2022-08-01T03:34:38;20.00;99.90
2967;DHT22;1493;51.496;7.210;2022-08-01T03:37:09;20.10;99.90
2967;DHT22;1493;51.496;7.210;2022-08-01T03:39:41;20.10;99.90
2967;DHT22;1493;51.496;7.210;2022-08-01T03:42:14;20.10;99.90
2967;DHT22;1493;51.496;7.210;2022-08-01T03:44:47;20.20;99.90
2967;DHT22;1493;51.496;7.210;2022-08-01T03:47:17;20.20;99.90
2967;DHT22;1493;51.496;7.210;2022-08-01T03:49:44;20.20;99.90
2967;DHT22;1493;51.496;7.210;2022-08-01T03:52:12;20.20;99.90
2967;DHT22;1493;51.496;7.210;2022-08-01T03:54:43;20.20;99.90
2967;DHT22;1493;51.496;7.210;2022-08-01T03:57:13;20.10;99.90
2967;DHT22;1493;51.496;7.210;2022-08-01T03:59:41;20.00;99.90
2967;DHT22;1493;51.496;7.210;2022-08-01T04:02:09;20.10;99.90
2967;DHT22;1493;51.496;7.210;2022-08-01T04:04:36;20.10;99.90
2967;DHT22;1493;51.496;7.210;2022-08-01T04:07:03;20.20;99.90
2967;DHT22;1493;51.496;7.210;2022-08-01T04:09:32;20.10;99.90
2967;DHT22;1493;51.496;7.210;2022-08-01T04:11:59;20.10;99.90
2967;DHT22;1493;51.496;7.210;2022-08-01T04:14:28;20.10;99.90
2967;DHT22;1493;51.496;7.210;2022-08-01T04:16:55;20.20;99.90
2967;DHT22;1493;51.496;7.210;2022-08-01T04:19:21;20.20;99.90
2967;DHT22;1493;51.496;7.210;2022-08-01T04:21:49;20.20;99.90
2967;DHT22;1493;51.496;7.210;2022-08-01T04:24:18;20.10;99.90
2967;DHT22;1493;51.496;7.210;2022-08-01T04:26:46;20.20;99.90
2967;DHT22;1493;51.496;7.210;2022-08-01T04:29:16;20.10;99.90
2967;DHT22;1493;51.496;7.210;2022-08-01T04:31:47;20.20;99.90
2967;DHT22;1493;51.496;7.210;2022-08-01T04:34:19;20.20;99.90
2967;DHT22;1493;51.496;7.210;2022-08-01T04:36:48;20.20;99.90
2967;DHT22;1493;51.496;7.210;2022-08-01T04:39:17;20.20;99.90
2967;DHT22;1493;51.496;7.210;2022-08-01T04:41:46;20.30;99.90
2967;DHT22;1493;51.496;7.210;2022-08-01T04:44:13;20.30;99.90
2967;DHT22;1493;51.496;7.210;2022-08-01T04:46:42;20.30;99.90
2967;DHT22;1493;51.496;7.210;2022-08-01T04:49:12;20.30;99.90
2967;DHT22;1493;51.496;7.210;2022-08-01T04:51:50;20.30;99.90
2967;DHT22;1493;51.496;7.210;2022-08-01T04:54:17;20.30;99.90
2967;DHT22;1493;51.496;7.210;2022-08-01T04:56:44;20.30;99.90
2967;DHT22;1493;51.496;7.210;2022-08-01T04:59:12;20.40;99.90
2967;DHT22;1493;51.496;7.210;2022-08-01T05:01:56;20.30;99.90
2967;DHT22;1493;51.496;7.210;2022-08-01T05:04:24;20.30;99.90
2967;DHT22;1493;51.496;7.210;2022-08-01T05:06:51;20.20;99.90
2967;DHT22;1493;51.496;7.210;2022-08-01T05:09:18;20.20;99.90
2967;DHT22;1493;51.496;7.210;2022-08-01T05:11:45;20.10;99.90
2967;DHT22;1493;51.496;7.210;2022-08-01T05:14:12;20.20;99.90
2967;DHT22;1493;51.496;7.210;2022-08-01T05:16:39;20.10;99.90
2967;DHT22;1493;51.496;7.210;2022-08-01T05:19:07;20.20;99.90
2967;DHT22;1493;51.496;7.210;2022-08-01T05:21:35;20.20;99.90
2967;DHT22;1493;51.496;7.210;2022-08-01T05:24:03;20.20;99.90
2967;DHT22;1493;51.496;7.210;2022-08-01T05:26:30;20.30;99.90
2967;DHT22;1493;51.496;7.210;2022-08-01T05:28:58;20.40;99.90
2967;DHT22;1493;51.496;7.210;2022-08-01T05:31:25;20.50;99.90
2967;DHT22;1493;51.496;7.210;2022-08-01T05:33:52;20.50;99.90
2967;DHT22;1493;51.496;7.210;2022-08-01T05:36:19;20.50;99.90
2967;DHT22;1493;51.496;7.210;2022-08-01T05:38:47;20.50;99.90
2967;DHT22;1493;51.496;7.210;2022-08-01T05:41:14;20.50;99.90
2967;DHT22;1493;51.496;7.210;2022-08-01T05:43:41;20.40;99.90
2967;DHT22;1493;51.496;7.210;2022-08-01T05:46:08;20.40;99.90
2967;DHT22;1493;51.496;7.210;2022-08-01T05:48:35;20.40;99.90
2967;DHT22;1493;51.496;7.210;2022-08-01T05:51:01;20.40;99.90
2967;DHT22;1493;51.496;7.210;2022-08-01T05:53:28;20.40;99.90
2967;DHT22;1493;51.496;7.210;2022-08-01T05:55:57;20.30;99.90
2967;DHT22;1493;51.496;7.210;2022-08-01T05:58:23;20.40;99.90
2967;DHT22;1493;51.496;7.210;2022-08-01T06:00:50;20.50;99.90
2967;DHT22;1493;51.496;7.210;2022-08-01T06:03:18;20.40;99.90
2967;DHT22;1493;51.496;7.210;2022-08-01T06:05:44;20.40;99.90
2967;DHT22;1493;51.496;7.210;2022-08-01T06:08:11;20.40;99.90
2967;DHT22;1493;51.496;7.210;2022-08-01T06:10:38;20.40;99.90
2967;DHT22;1493;51.496;7.210;2022-08-01T06:13:06;20.40;99.90
2967;DHT22;1493;51.496;7.210;2022-08-01T06:15:33;20.50;99.90
2967;DHT22;1493;51.496;7.210;2022-08-01T06:18:00;20.50;99.90
2967;DHT22;1493;51.496;7.210;2022-08-01T06:20:27;20.50;99.90
2967;DHT22;1493;51.496;7.210;2022-08-01T06:22:54;20.50;99.90
2967;DHT22;1493;51.496;7.210;2022-08-01T06:25:21;20.60;99.90
2967;DHT22;1493;51.496;7.210;2022-08-01T06:27:48;20.60;99.90
2967;DHT22;1493;51.496;7.210;2022-08-01T06:30:16;20.70;99.90
2967;DHT22;1493;51.496;7.210;2022-08-01T06:32:43;20.80;99.90
2967;DHT22;1493;51.496;7.210;2022-08-01T06:35:10;20.80;99.90
2967;DHT22;1493;51.496;7.210;2022-08-01T06:37:36;20.80;99.90
2967;DHT22;1493;51.496;7.210;2022-08-01T06:40:04;20.90;99.90
2967;DHT22;1493;51.496;7.210;2022-08-01T06:42:32;20.90;99.90
2967;DHT22;1493;51.496;7.210;2022-08-01T06:45:01;20.90;99.90
2967;DHT22;1493;51.496;7.210;2022-08-01T06:47:32;21.00;99.90
2967;DHT22;1493;51.496;7.210;2022-08-01T06:49:59;20.80;99.90
2967;DHT22;1493;51.496;7.210;2022-08-01T06:52:26;20.80;99.90
2967;DHT22;1493;51.496;7.210;2022-08-01T06:54:53;20.90;99.90
2967;DHT22;1493;51.496;7.210;2022-08-01T06:57:20;20.80;99.90
2967;DHT22;1493;51.496;7.210;2022-08-01T06:59:49;20.90;99.90
2967;DHT22;1493;51.496;7.210;2022-08-01T07:02:19;21.00;99.90
2967;DHT22;1493;51.496;7.210;2022-08-01T07:04:47;21.00;99.90
2967;DHT22;1493;51.496;7.210;2022-08-01T07:07:14;21.10;99.90
2967;DHT22;1493;51.496;7.210;2022-08-01T07:09:41;21.10;99.90
2967;DHT22;1493;51.496;7.210;2022-08-01T07:12:08;21.20;99.90
2967;DHT22;1493;51.496;7.210;2022-08-01T07:14:36;21.10;99.90
2967;DHT22;1493;51.496;7.210;2022-08-01T07:17:03;21.10;99.90
2967;DHT22;1493;51.496;7.210;2022-08-01T07:19:32;21.40;99.90
2967;DHT22;1493;51.496;7.210;2022-08-01T07:22:01;21.20;99.90
2967;DHT22;1493;51.496;7.210;2022-08-01T07:24:28;21.10;99.90
2967;DHT22;1493;51.496;7.210;2022-08-01T07:26:56;21.30;99.90
2967;DHT22;1493;51.496;7.210;2022-08-01T07:29:23;21.30;99.90
2967;DHT22;1493;51.496;7.210;2022-08-01T07:31:54;21.30;99.90
2967;DHT22;1493;51.496;7.210;2022-08-01T07:34:22;21.30;99.90
2967;DHT22;1493;51.496;7.210;2022-08-01T07:36:49;21.40;99.90
2967;DHT22;1493;51.496;7.210;2022-08-01T07:39:18;21.50;99.90
2967;DHT22;1493;51.496;7.210;2022-08-01T07:41:45;21.60;99.90
2967;DHT22;1493;51.496;7.210;2022-08-01T07:44:12;21.50;99.90
2967;DHT22;1493;51.496;7.210;2022-08-01T07:46:39;21.50;99.90
2967;DHT22;1493;51.496;7.210;2022-08-01T07:49:06;21.70;99.90
2967;DHT22;1493;51.496;7.210;2022-08-01T07:51:33;21.90;99.90
2967;DHT22;1493;51.496;7.210;2022-08-01T07:54:00;22.00;99.90
2967;DHT22;1493;51.496;7.210;2022-08-01T07:56:29;21.90;99.90
2967;DHT22;1493;51.496;7.210;2022-08-01T07:58:58;22.00;99.90
2967;DHT22;1493;51.496;7.210;2022-08-01T08:01:31;22.00;99.90
2967;DHT22;1493;51.496;7.210;2022-08-01T08:03:57;22.10;99.90
2967;DHT22;1493;51.496;7.210;2022-08-01T08:06:24;22.00;99.90
2967;DHT22;1493;51.496;7.210;2022-08-01T08:08:53;21.80;99.90
2967;DHT22;1493;51.496;7.210;2022-08-01T08:11:23;21.90;99.90
2967;DHT22;1493;51.496;7.210;2022-08-01T08:13:54;22.00;99.90
2967;DHT22;1493;51.496;7.210;2022-08-01T08:16:21;21.90;99.90
2967;DHT22;1493;51.496;7.210;2022-08-01T08:18:48;22.00;99.90
2967;DHT22;1493;51.496;7.210;2022-08-01T08:21:15;22.00;99.90
2967;DHT22;1493;51.496;7.210;2022-08-01T08:23:42;22.00;99.90
2967;DHT22;1493;51.496;7.210;2022-08-01T08:26:26;22.20;99.90
2967;DHT22;1493;51.496;7.210;2022-08-01T08:28:54;22.50;99.90
2967;DHT22;1493;51.496;7.210;2022-08-01T08:31:21;22.60;99.90
2967;DHT22;1493;51.496;7.210;2022-08-01T08:33:48;22.60;99.90
2967;DHT22;1493;51.496;7.210;2022-08-01T08:36:15;22.70;99.90
2967;DHT22;1493;51.496;7.210;2022-08-01T08:38:42;22.90;99.90
2967;DHT22;1493;51.496;7.210;2022-08-01T08:41:09;23.00;99.90
2967;DHT22;1493;51.496;7.210;2022-08-01T08:43:36;23.00;99.90
2967;DHT22;1493;51.496;7.210;2022-08-01T08:46:12;22.80;99.90
2967;DHT22;1493;51.496;7.210;2022-08-01T08:48:41;22.80;99.90
2967;DHT22;1493;51.496;7.210;2022-08-01T08:51:08;22.90;99.90
2967;DHT22;1493;51.496;7.210;2022-08-01T08:53:38;23.10;99.90
2967;DHT22;1493;51.496;7.210;2022-08-01T08:56:09;23.50;99.90
2967;DHT22;1493;51.496;7.210;2022-08-01T08:58:38;23.70;99.90
2967;DHT22;1493;51.496;7.210;2022-08-01T09:01:05;23.90;99.90
2967;DHT22;1493;51.496;7.210;2022-08-01T09:03:34;23.90;99.90
2967;DHT22;1493;51.496;7.210;2022-08-01T09:06:01;23.90;99.90
2967;DHT22;1493;51.496;7.210;2022-08-01T09:08:28;23.90;99.90
2967;DHT22;1493;51.496;7.210;2022-08-01T09:10:55;23.60;99.90
2967;DHT22;1493;51.496;7.210;2022-08-01T09:13:22;23.70;99.90
2967;DHT22;1493;51.496;7.210;2022-08-01T09:15:51;23.90;99.90
2967;DHT22;1493;51.496;7.210;2022-08-01T09:18:30;24.10;99.90
2967;DHT22;1493;51.496;7.210;2022-08-01T09:21:12;24.30;99.90
2967;DHT22;1493;51.496;7.210;2022-08-01T09:23:41;24.40;99.90
2967;DHT22;1493;51.496;7.210;2022-08-01T09:26:11;24.00;99.90
2967;DHT22;1493;51.496;7.210;2022-08-01T09:28:38;23.80;99.90
2967;DHT22;1493;51.496;7.210;2022-08-01T09:31:07;23.70;99.90
2967;DHT22;1493;51.496;7.210;2022-08-01T09:33:51;23.50;99.90
2967;DHT22;1493;51.496;7.210;2022-08-01T09:36:20;23.50;99.90
2967;DHT22;1493;51.496;7.210;2022-08-01T09:38:47;23.40;99.90
2967;DHT22;1493;51.496;7.210;2022-08-01T09:41:14;23.80;99.90
2967;DHT22;1493;51.496;7.210;2022-08-01T09:43:48;24.00;99.90
2967;DHT22;1493;51.496;7.210;2022-08-01T09:46:15;24.40;99.90
2967;DHT22;1493;51.496;7.210;2022-08-01T09:48:55;24.80;99.90
2967;DHT22;1493;51.496;7.210;2022-08-01T09:51:32;24.90;99.90
2967;DHT22;1493;51.496;7.210;2022-08-01T09:54:00;25.00;99.90
2967;DHT22;1493;51.496;7.210;2022-08-01T09:56:36;24.60;99.90
2967;DHT22;1493;51.496;7.210;2022-08-01T09:59:03;24.50;99.90
2967;DHT22;1493;51.496;7.210;2022-08-01T10:01:43;24.10;99.90
2967;DHT22;1493;51.496;7.210;2022-08-01T10:04:11;24.60;99.90
2967;DHT22;1493;51.496;7.210;2022-08-01T10:06:41;24.90;99.90
2967;DHT22;1493;51.496;7.210;2022-08-01T10:09:10;24.90;99.90
2967;DHT22;1493;51.496;7.210;2022-08-01T10:11:37;25.30;99.90
2967;DHT22;1493;51.496;7.210;2022-08-01T10:14:06;25.40;99.90
2967;DHT22;1493;51.496;7.210;2022-08-01T10:16:34;25.70;99.90
2967;DHT22;1493;51.496;7.210;2022-08-01T10:19:02;25.90;99.90
2967;DHT22;1493;51.496;7.210;2022-08-01T10:21:32;25.90;99.90
2967;DHT22;1493;51.496;7.210;2022-08-01T10:24:02;25.90;99.90
2967;DHT22;1493;51.496;7.210;2022-08-01T10:26:33;25.80;99.90
2967;DHT22;1493;51.496;7.210;2022-08-01T10:29:01;25.50;99.90
2967;DHT22;1493;51.496;7.210;2022-08-01T10:31:29;25.50;99.90
2967;DHT22;1493;51.496;7.210;2022-08-01T10:33:59;25.30;99.90
2967;DHT22;1493;51.496;7.210;2022-08-01T10:36:27;25.10;99.90
2967;DHT22;1493;51.496;7.210;2022-08-01T10:38:55;24.90;99.90
2967;DHT22;1493;51.496;7.210;2022-08-01T10:41:24;24.60;99.90
2967;DHT22;1493;51.496;7.210;2022-08-01T10:43:51;24.70;99.90
2967;DHT22;1493;51.496;7.210;2022-08-01T10:46:19;24.70;99.90
2967;DHT22;1493;51.496;7.210;2022-08-01T10:48:51;24.60;99.90
2967;DHT22;1493;51.496;7.210;2022-08-01T10:51:21;24.50;99.90
2967;DHT22;1493;51.496;7.210;2022-08-01T10:53:51;24.00;99.90
2967;DHT22;1493;51.496;7.210;2022-08-01T10:56:18;23.90;99.90
2967;DHT22;1493;51.496;7.210;2022-08-01T10:58:48;23.80;99.90
2967;DHT22;1493;51.496;7.210;2022-08-01T11:01:21;23.80;99.90
2967;DHT22;1493;51.496;7.210;2022-08-01T11:04:03;23.70;99.90
2967;DHT22;1493;51.496;7.210;2022-08-01T11:06:46;23.70;99.90
2967;DHT22;1493;51.496;7.210;2022-08-01T11:09:27;23.70;99.90
2967;DHT22;1493;51.496;7.210;2022-08-01T11:11:59;23.80;99.90
2967;DHT22;1493;51.496;7.210;2022-08-01T11:14:28;24.00;99.90
2967;DHT22;1493;51.496;7.210;2022-08-01T11:16:56;24.30;99.90
2967;DHT22;1493;51.496;7.210;2022-08-01T11:19:22;24.60;99.90
2967;DHT22;1493;51.496;7.210;2022-08-01T11:21:59;24.70;99.90
2967;DHT22;1493;51.496;7.210;2022-08-01T11:24:56;24.70;99.90
2967;DHT22;1493;51.496;7.210;2022-08-01T11:27:28;24.00;99.90
2967;DHT22;1493;51.496;7.210;2022-08-01T11:30:24;24.00;99.90
2967;DHT22;1493;51.496;7.210;2022-08-01T11:32:56;24.00;99.90
2967;DHT22;1493;51.496;7.210;2022-08-01T11:35:24;23.70;99.90
2967;DHT22;1493;51.496;7.210;2022-08-01T11:37:53;23.50;99.90
2967;DHT22;1493;51.496;7.210;2022-08-01T11:40:22;23.60;99.90
2967;DHT22;1493;51.496;7.210;2022-08-01T11:42:51;23.50;99.90
2967;DHT22;1493;51.496;7.210;2022-08-01T11:45:48;23.60;99.90
2967;DHT22;1493;51.496;7.210;2022-08-01T11:48:26;23.80;99.90
2967;DHT22;1493;51.496;7.210;2022-08-01T11:50:54;24.10;99.90
2967;DHT22;1493;51.496;7.210;2022-08-01T11:53:21;24.40;99.90
2967;DHT22;1493;51.496;7.210;2022-08-01T11:55:50;24.50;99.90
2967;DHT22;1493;51.496;7.210;2022-08-01T11:58:21;24.50;99.90
2967;DHT22;1493;51.496;7.210;2022-08-01T12:00:53;24.60;99.90
2967;DHT22;1493;51.496;7.210;2022-08-01T12:03:24;24.70;99.90
2967;DHT22;1493;51.496;7.210;2022-08-01T12:05:53;25.10;99.90
2967;DHT22;1493;51.496;7.210;2022-08-01T12:08:25;25.20;99.90
2967;DHT22;1493;51.496;7.210;2022-08-01T12:10:52;25.20;99.90
2967;DHT22;1493;51.496;7.210;2022-08-01T12:13:19;25.30;99.90
2967;DHT22;1493;51.496;7.210;2022-08-01T12:15:47;25.20;99.90
2967;DHT22;1493;51.496;7.210;2022-08-01T12:18:17;25.00;99.90
2967;DHT22;1493;51.496;7.210;2022-08-01T12:20:45;24.60;99.90
2967;DHT22;1493;51.496;7.210;2022-08-01T12:23:14;24.90;99.90
2967;DHT22;1493;51.496;7.210;2022-08-01T12:25:41;25.60;99.90
2967;DHT22;1493;51.496;7.210;2022-08-01T12:28:11;26.20;99.90
2967;DHT22;1493;51.496;7.210;2022-08-01T12:30:39;26.10;99.90
2967;DHT22;1493;51.496;7.210;2022-08-01T12:33:08;26.40;99.90
2967;DHT22;1493;51.496;7.210;2022-08-01T12:35:38;26.70;99.90
2967;DHT22;1493;51.496;7.210;2022-08-01T12:38:13;26.40;99.90
2967;DHT22;1493;51.496;7.210;2022-08-01T12:40:42;26.40;99.90
2967;DHT22;1493;51.496;7.210;2022-08-01T12:43:09;26.30;99.90
2967;DHT22;1493;51.496;7.210;2022-08-01T12:45:38;25.70;99.90
2967;DHT22;1493;51.496;7.210;2022-08-01T12:48:08;25.50;99.90
2967;DHT22;1493;51.496;7.210;2022-08-01T12:50:39;25.20;99.90
2967;DHT22;1493;51.496;7.210;2022-08-01T12:53:08;25.10;99.90
2967;DHT22;1493;51.496;7.210;2022-08-01T12:55:43;24.90;99.90
2967;DHT22;1493;51.496;7.210;2022-08-01T12:58:14;24.80;99.90
2967;DHT22;1493;51.496;7.210;2022-08-01T13:00:42;24.60;99.90
2967;DHT22;1493;51.496;7.210;2022-08-01T13:03:11;24.80;99.90
2967;DHT22;1493;51.496;7.210;2022-08-01T13:05:46;24.90;99.90
2967;DHT22;1493;51.496;7.210;2022-08-01T13:08:15;25.40;99.90
2967;DHT22;1493;51.496;7.210;2022-08-01T13:10:43;26.00;99.90
2967;DHT22;1493;51.496;7.210;2022-08-01T13:13:11;26.20;99.90
2967;DHT22;1493;51.496;7.210;2022-08-01T13:15:39;26.30;99.90
2967;DHT22;1493;51.496;7.210;2022-08-01T13:18:26;26.00;99.90
2967;DHT22;1493;51.496;7.210;2022-08-01T13:21:13;25.70;99.90
2967;DHT22;1493;51.496;7.210;2022-08-01T13:23:42;25.10;99.90
2967;DHT22;1493;51.496;7.210;2022-08-01T13:26:38;25.00;99.90
2967;DHT22;1493;51.496;7.210;2022-08-01T13:29:06;25.10;99.90
2967;DHT22;1493;51.496;7.210;2022-08-01T13:31:34;25.70;99.90
2967;DHT22;1493;51.496;7.210;2022-08-01T13:34:03;26.30;99.90
2967;DHT22;1493;51.496;7.210;2022-08-01T13:36:32;26.70;99.90
2967;DHT22;1493;51.496;7.210;2022-08-01T13:38:59;27.00;99.90
2967;DHT22;1493;51.496;7.210;2022-08-01T13:41:44;26.70;99.90
2967;DHT22;1493;51.496;7.210;2022-08-01T13:44:12;26.60;99.90
2967;DHT22;1493;51.496;7.210;2022-08-01T13:46:40;26.50;99.90
2967;DHT22;1493;51.496;7.210;2022-08-01T13:49:09;26.40;99.90
2967;DHT22;1493;51.496;7.210;2022-08-01T13:51:38;26.60;99.90
2967;DHT22;1493;51.496;7.210;2022-08-01T13:54:05;26.80;99.90
2967;DHT22;1493;51.496;7.210;2022-08-01T13:56:33;26.60;99.90
2967;DHT22;1493;51.496;7.210;2022-08-01T13:59:00;26.50;99.90
2967;DHT22;1493;51.496;7.210;2022-08-01T14:01:26;26.30;99.90
2967;DHT22;1493;51.496;7.210;2022-08-01T14:03:53;26.30;99.90
2967;DHT22;1493;51.496;7.210;2022-08-01T14:06:20;26.50;99.90
2967;DHT22;1493;51.496;7.210;2022-08-01T14:08:49;26.40;99.90
2967;DHT22;1493;51.496;7.210;2022-08-01T14:11:16;26.40;99.90
2967;DHT22;1493;51.496;7.210;2022-08-01T14:13:43;26.50;99.90
2967;DHT22;1493;51.496;7.210;2022-08-01T14:16:10;26.50;99.90
2967;DHT22;1493;51.496;7.210;2022-08-01T14:18:37;26.40;99.90
2967;DHT22;1493;51.496;7.210;2022-08-01T14:21:04;26.40;99.90
2967;DHT22;1493;51.496;7.210;2022-08-01T14:23:31;26.00;99.90
2967;DHT22;1493;51.496;7.210;2022-08-01T14:25:59;26.10;99.90
2967;DHT22;1493;51.496;7.210;2022-08-01T14:28:26;25.80;99.90
2967;DHT22;1493;51.496;7.210;2022-08-01T14:30:53;25.50;99.90
2967;DHT22;1493;51.496;7.210;2022-08-01T14:33:21;25.50;99.90
2967;DHT22;1493;51.496;7.210;2022-08-01T14:35:48;25.50;99.90
2967;DHT22;1493;51.496;7.210;2022-08-01T14:38:15;25.50;99.90
2967;DHT22;1493;51.496;7.210;2022-08-01T14:40:42;25.40;99.90
2967;DHT22;1493;51.496;7.210;2022-08-01T14:43:10;25.20;99.90
2967;DHT22;1493;51.496;7.210;2022-08-01T14:45:37;25.10;99.90
2967;DHT22;1493;51.496;7.210;2022-08-01T14:48:04;25.20;99.90
2967;DHT22;1493;51.496;7.210;2022-08-01T14:50:31;25.30;99.90
2967;DHT22;1493;51.496;7.210;2022-08-01T14:52:58;25.40;99.90
2967;DHT22;1493;51.496;7.210;2022-08-01T14:55:25;25.50;99.90
2967;DHT22;1493;51.496;7.210;2022-08-01T14:57:53;25.50;99.90
2967;DHT22;1493;51.496;7.210;2022-08-01T15:00:21;25.30;99.90
2967;DHT22;1493;51.496;7.210;2022-08-01T15:02:48;25.20;99.90
2967;DHT22;1493;51.496;7.210;2022-08-01T15:05:15;25.30;99.90
2967;DHT22;1493;51.496;7.210;2022-08-01T15:07:42;25.30;99.90
2967;DHT22;1493;51.496;7.210;2022-08-01T15:10:09;25.00;99.90
2967;DHT22;1493;51.496;7.210;2022-08-01T15:12:36;24.80;99.90
2967;DHT22;1493;51.496;7.210;2022-08-01T15:15:03;24.80;99.90
2967;DHT22;1493;51.496;7.210;2022-08-01T15:17:32;24.70;99.90
2967;DHT22;1493;51.496;7.210;2022-08-01T15:20:00;24.70;99.90
2967;DHT22;1493;51.496;7.210;2022-08-01T15:22:28;24.70;99.90
2967;DHT22;1493;51.496;7.210;2022-08-01T15:24:57;24.70;99.90
2967;DHT22;1493;51.496;7.210;2022-08-01T15:27:24;24.90;99.90
2967;DHT22;1493;51.496;7.210;2022-08-01T15:29:52;25.30;99.90
2967;DHT22;1493;51.496;7.210;2022-08-01T15:32:19;25.30;99.90
2967;DHT22;1493;51.496;7.210;2022-08-01T15:34:48;25.50;99.90
2967;DHT22;1493;51.496;7.210;2022-08-01T15:37:14;25.50;99.90
2967;DHT22;1493;51.496;7.210;2022-08-01T15:39:41;25.70;99.90
2967;DHT22;1493;51.496;7.210;2022-08-01T15:42:09;25.70;99.90
2967;DHT22;1493;51.496;7.210;2022-08-01T15:44:36;25.60;99.90
2967;DHT22;1493;51.496;7.210;2022-08-01T15:47:04;25.40;99.90
2967;DHT22;1493;51.496;7.210;2022-08-01T15:49:31;25.10;99.90
2967;DHT22;1493;51.496;7.210;2022-08-01T15:51:59;25.00;99.90
2967;DHT22;1493;51.496;7.210;2022-08-01T15:54:26;25.20;99.90
2967;DHT22;1493;51.496;7.210;2022-08-01T15:56:53;25.20;99.90
2967;DHT22;1493;51.496;7.210;2022-08-01T15:59:20;25.10;99.90
2967;DHT22;1493;51.496;7.210;2022-08-01T16:01:46;25.20;99.90
2967;DHT22;1493;51.496;7.210;2022-08-01T16:04:14;25.10;99.90
2967;DHT22;1493;51.496;7.210;2022-08-01T16:06:42;25.20;99.90
2967;DHT22;1493;51.496;7.210;2022-08-01T16:09:10;25.40;99.90
2967;DHT22;1493;51.496;7.210;2022-08-01T16:11:37;25.40;99.90
2967;DHT22;1493;51.496;7.210;2022-08-01T16:14:04;25.40;99.90
2967;DHT22;1493;51.496;7.210;2022-08-01T16:16:31;25.30;99.90